createdAt,value
2017-11-07T00:01:19.932Z,1.10
2017-11-07T00:03:47.408Z,1.00
2017-11-07T00:06:14.898Z,1.00
2017-11-07T00:08:42.380Z,0.90
2017-11-07T00:11:09.871Z,0.90
2017-11-07T00:13:37.343Z,0.90
2017-11-07T00:16:05.591Z,0.80
2017-11-07T00:18:33.075Z,0.80
2017-11-07T00:21:01.309Z,0.90
2017-11-07T00:23:28.787Z,0.80
2017-11-07T00:25:56.271Z,0.80
2017-11-07T00:28:24.499Z,0.70
2017-11-07T00:30:51.986Z,0.60
2017-11-07T00:33:20.221Z,0.70
2017-11-07T00:35:47.702Z,0.70
2017-11-07T00:38:15.171Z,0.70
2017-11-07T00:40:42.660Z,0.70
2017-11-07T00:43:10.114Z,0.70
2017-11-07T00:45:37.595Z,0.60
2017-11-07T00:48:05.081Z,0.60
2017-11-07T00:50:32.561Z,0.70
2017-11-07T00:53:00.033Z,0.60
2017-11-07T00:55:28.287Z,0.50
2017-11-07T00:57:55.762Z,0.40
2017-11-07T01:00:24.013Z,0.50
2017-11-07T01:02:51.526Z,0.40
2017-11-07T01:05:18.996Z,0.40
2017-11-07T01:07:46.456Z,0.30
2017-11-07T01:10:13.935Z,0.30
2017-11-07T01:12:41.415Z,0.40
2017-11-07T01:15:09.671Z,0.30
2017-11-07T01:17:37.151Z,0.30
2017-11-07T01:20:05.381Z,0.20
2017-11-07T01:22:32.867Z,0.20
2017-11-07T01:25:00.373Z,0.20
2017-11-07T01:27:27.838Z,0.20
2017-11-07T01:29:55.304Z,0.20
2017-11-07T01:32:22.778Z,0.20
2017-11-07T01:34:50.249Z,0.20
2017-11-07T01:37:17.719Z,0.10
2017-11-07T01:39:45.971Z,0.10
2017-11-07T01:42:13.454Z,0.10
2017-11-07T01:44:41.711Z,0.00
2017-11-07T01:47:09.170Z,0.00
2017-11-07T01:49:36.632Z,0.10
2017-11-07T01:52:04.107Z,0.20
2017-11-07T01:54:31.578Z,0.10
2017-11-07T01:56:59.051Z,0.00
2017-11-07T01:59:26.521Z,-0.20
2017-11-07T02:01:53.991Z,-0.30
2017-11-07T02:04:21.488Z,-0.30
2017-11-07T02:06:49.735Z,-0.30
2017-11-07T02:09:17.217Z,-0.30
2017-11-07T02:11:45.461Z,-0.20
2017-11-07T02:14:12.952Z,-0.30
2017-11-07T02:16:41.204Z,-0.20
2017-11-07T02:19:08.671Z,-0.30
2017-11-07T02:21:36.912Z,-0.10
2017-11-07T02:24:04.379Z,-0.10
2017-11-07T02:26:31.862Z,-0.10
2017-11-07T02:29:00.174Z,0.20
2017-11-07T02:31:27.648Z,0.20
2017-11-07T02:33:55.107Z,0.20
2017-11-07T02:36:22.597Z,0.30
2017-11-07T02:38:50.087Z,0.40
2017-11-07T02:41:17.572Z,0.30
2017-11-07T02:43:45.060Z,0.40
2017-11-07T02:46:12.527Z,0.30
2017-11-07T02:48:40.783Z,0.30
2017-11-07T02:51:08.240Z,0.30
2017-11-07T02:53:35.702Z,0.30
2017-11-07T02:56:03.241Z,0.20
2017-11-07T02:58:30.711Z,0.10
2017-11-07T03:00:58.215Z,0.20
2017-11-07T03:03:25.667Z,0.20
2017-11-07T03:05:53.146Z,0.10
2017-11-07T03:08:20.611Z,0.10
2017-11-07T03:10:48.086Z,0.00
2017-11-07T03:13:15.551Z,0.00
2017-11-07T03:15:43.028Z,0.00
2017-11-07T03:18:11.284Z,0.00
2017-11-07T03:20:38.755Z,0.00
2017-11-07T03:23:07.005Z,0.00
2017-11-07T03:25:34.486Z,0.00
2017-11-07T03:28:01.976Z,-0.10
2017-11-07T03:30:29.469Z,-0.10
2017-11-07T03:32:56.927Z,0.00
2017-11-07T03:35:24.408Z,-0.10
2017-11-07T03:37:51.875Z,-0.10
2017-11-07T03:40:20.130Z,-0.10
2017-11-07T03:42:47.619Z,-0.10
2017-11-07T03:45:16.268Z,-0.10
2017-11-07T03:47:43.735Z,-0.10
2017-11-07T03:50:11.222Z,-0.10
2017-11-07T03:52:39.463Z,-0.10
2017-11-07T03:55:06.947Z,-0.10
2017-11-07T03:57:35.193Z,-0.10
2017-11-07T04:00:02.684Z,-0.20
2017-11-07T04:02:30.916Z,-0.10
2017-11-07T04:04:58.391Z,-0.10
2017-11-07T04:07:26.659Z,-0.20
2017-11-07T04:09:54.151Z,-0.20
2017-11-07T04:12:21.635Z,-0.20
2017-11-07T04:14:49.102Z,-0.20
2017-11-07T04:17:16.563Z,-0.20
2017-11-07T04:19:44.043Z,-0.30
2017-11-07T04:22:11.507Z,-0.30
2017-11-07T04:24:38.990Z,-0.40
2017-11-07T04:27:06.458Z,-0.40
2017-11-07T04:29:33.947Z,-0.40
2017-11-07T04:32:01.418Z,-0.40
2017-11-07T04:34:28.907Z,-0.40
2017-11-07T04:36:57.615Z,-0.50
2017-11-07T04:39:25.160Z,-0.50
2017-11-07T04:41:52.637Z,-0.40
2017-11-07T04:44:20.117Z,-0.40
2017-11-07T04:46:47.610Z,-0.30
2017-11-07T04:49:15.079Z,-0.20
2017-11-07T04:51:43.336Z,-0.40
2017-11-07T04:54:10.811Z,-0.40
2017-11-07T04:56:39.064Z,-0.40
2017-11-07T04:59:06.539Z,-0.40
2017-11-07T05:01:34.806Z,-0.40
2017-11-07T05:04:02.553Z,-0.40
2017-11-07T05:06:31.528Z,-0.40
2017-11-07T05:08:59.011Z,-0.40
2017-11-07T05:11:26.492Z,-0.40
2017-11-07T05:13:54.737Z,-0.50
2017-11-07T05:16:22.232Z,-0.50
2017-11-07T05:18:49.723Z,-0.50
2017-11-07T05:21:17.198Z,-0.60
2017-11-07T05:23:44.678Z,-0.50
2017-11-07T05:26:12.186Z,-0.50
2017-11-07T05:28:39.667Z,-0.50
2017-11-07T05:31:07.138Z,-0.50
2017-11-07T05:33:34.616Z,-0.50
2017-11-07T05:36:02.872Z,-0.40
2017-11-07T05:38:30.340Z,-0.40
2017-11-07T05:40:58.571Z,-0.30
2017-11-07T05:43:26.054Z,-0.40
2017-11-07T05:45:53.523Z,-0.30
2017-11-07T05:48:21.779Z,-0.40
2017-11-07T05:50:49.255Z,-0.40
2017-11-07T05:53:16.752Z,-0.40
2017-11-07T05:55:44.219Z,-0.40
2017-11-07T05:58:11.703Z,-0.50
2017-11-07T06:00:39.203Z,-0.60
2017-11-07T06:03:06.672Z,-0.60
2017-11-07T06:05:34.144Z,-0.50
2017-11-07T06:08:01.626Z,-0.50
2017-11-07T06:10:29.109Z,-0.50
2017-11-07T06:12:57.343Z,-0.50
2017-11-07T06:15:24.827Z,-0.50
2017-11-07T06:17:52.295Z,-0.40
2017-11-07T06:20:20.563Z,-0.30
2017-11-07T06:22:48.023Z,-0.30
2017-11-07T06:25:15.492Z,-0.30
2017-11-07T06:27:43.798Z,-0.30
2017-11-07T06:30:11.276Z,-0.30
2017-11-07T06:32:38.763Z,-0.30
2017-11-07T06:35:06.239Z,-0.30
2017-11-07T06:37:34.682Z,-0.30
2017-11-07T06:40:02.156Z,-0.30
2017-11-07T06:42:30.482Z,-0.30
2017-11-07T06:44:58.110Z,-0.30
2017-11-07T06:47:26.353Z,-0.10
2017-11-07T06:49:53.827Z,-0.10
2017-11-07T06:52:21.332Z,0.00
2017-11-07T06:54:48.792Z,0.10
2017-11-07T06:57:16.254Z,0.10
2017-11-07T06:59:43.734Z,0.10
2017-11-07T07:02:11.209Z,0.20
2017-11-07T07:04:38.687Z,0.40
2017-11-07T07:07:06.178Z,0.50
2017-11-07T07:09:33.659Z,0.50
2017-11-07T07:12:01.141Z,0.60
2017-11-07T07:14:28.616Z,0.60
2017-11-07T07:16:56.836Z,0.70
2017-11-07T07:19:24.327Z,0.60
2017-11-07T07:21:51.799Z,0.70
2017-11-07T07:24:20.024Z,0.80
2017-11-07T07:26:47.508Z,0.80
2017-11-07T07:29:14.974Z,0.80
2017-11-07T07:31:43.208Z,1.20
2017-11-07T07:34:10.696Z,1.20
2017-11-07T07:36:38.159Z,1.40
2017-11-07T07:39:05.636Z,1.50
2017-11-07T07:41:33.124Z,1.50
2017-11-07T07:44:00.610Z,1.50
2017-11-07T07:46:28.112Z,1.60
2017-11-07T07:48:55.587Z,1.70
2017-11-07T07:51:23.071Z,1.80
2017-11-07T07:53:50.552Z,1.90
2017-11-07T07:56:18.045Z,2.00
2017-11-07T07:58:45.524Z,2.10
2017-11-07T08:01:12.983Z,2.20
2017-11-07T08:03:40.476Z,2.30
2017-11-07T08:06:08.451Z,2.60
2017-11-07T08:08:35.911Z,2.90
2017-11-07T08:11:04.158Z,3.20
2017-11-07T08:13:31.617Z,3.20
2017-11-07T08:15:59.092Z,3.30
2017-11-07T08:18:26.567Z,3.80
2017-11-07T08:20:54.817Z,4.80
2017-11-07T08:23:22.271Z,4.80
2017-11-07T08:25:49.754Z,4.70
2017-11-07T08:28:17.979Z,4.20
2017-11-07T08:30:45.468Z,4.20
2017-11-07T08:33:12.939Z,4.00
2017-11-07T08:35:41.167Z,4.60
2017-11-07T08:38:08.640Z,4.60
2017-11-07T08:40:36.123Z,4.90
2017-11-07T08:43:04.368Z,5.00
2017-11-07T08:45:31.836Z,5.00
2017-11-07T08:47:59.304Z,5.20
2017-11-07T08:50:26.804Z,5.30
2017-11-07T08:52:54.263Z,5.20
2017-11-07T08:55:21.728Z,5.10
2017-11-07T08:57:49.195Z,5.30
2017-11-07T09:00:16.664Z,5.30
2017-11-07T09:02:44.151Z,5.30
2017-11-07T09:05:11.615Z,5.30
2017-11-07T09:07:39.839Z,5.60
2017-11-07T09:10:07.396Z,5.60
2017-11-07T09:12:34.884Z,6.40
2017-11-07T09:15:02.351Z,7.30
2017-11-07T09:17:29.823Z,7.40
2017-11-07T09:19:57.288Z,7.00
2017-11-07T09:22:24.787Z,5.90
2017-11-07T09:24:52.252Z,6.20
2017-11-07T09:27:21.239Z,6.10
2017-11-07T09:29:48.711Z,6.10
2017-11-07T09:32:16.175Z,6.30
2017-11-07T09:34:43.643Z,6.00
2017-11-07T09:37:11.882Z,5.90
2017-11-07T09:39:39.356Z,5.90
2017-11-07T09:42:06.823Z,5.90
2017-11-07T09:44:34.324Z,6.00
2017-11-07T09:47:01.791Z,5.90
2017-11-07T09:49:29.275Z,5.40
2017-11-07T09:51:56.739Z,5.10
2017-11-07T09:54:26.501Z,5.00
2017-11-07T09:56:53.993Z,4.90
2017-11-07T09:59:21.444Z,4.90
2017-11-07T10:01:48.923Z,5.10
2017-11-07T10:04:16.413Z,5.10
2017-11-07T10:06:43.870Z,5.00
2017-11-07T10:09:11.359Z,4.90
2017-11-07T10:11:38.837Z,5.10
2017-11-07T10:14:06.328Z,5.30
2017-11-07T10:16:34.560Z,5.60
2017-11-07T10:19:02.040Z,5.60
2017-11-07T10:21:29.498Z,5.60
2017-11-07T10:23:56.980Z,5.50
2017-11-07T10:26:24.445Z,5.70
2017-11-07T10:28:51.914Z,5.90
2017-11-07T10:31:19.403Z,5.90
2017-11-07T10:33:46.847Z,6.40
2017-11-07T10:36:14.324Z,6.50
2017-11-07T10:38:41.798Z,6.20
2017-11-07T10:41:10.028Z,6.30
2017-11-07T10:43:37.515Z,6.20
2017-11-07T10:46:04.979Z,6.50
2017-11-07T10:48:32.439Z,6.40
2017-11-07T10:50:59.917Z,6.80
2017-11-07T10:53:28.143Z,7.00
2017-11-07T10:55:55.628Z,7.00
2017-11-07T10:58:23.083Z,7.80
2017-11-07T11:00:50.551Z,9.00
2017-11-07T11:03:18.792Z,11.50
2017-11-07T11:05:46.251Z,11.40
2017-11-07T11:08:13.750Z,11.50
2017-11-07T11:10:41.979Z,9.60
2017-11-07T11:13:09.452Z,9.60
2017-11-07T11:15:36.915Z,9.40
2017-11-07T11:18:04.411Z,9.80
2017-11-07T11:20:31.887Z,9.80
2017-11-07T11:22:59.355Z,9.80
2017-11-07T11:25:26.843Z,9.40
2017-11-07T11:27:54.321Z,9.90
2017-11-07T11:30:22.563Z,11.50
2017-11-07T11:32:50.019Z,11.50
2017-11-07T11:35:17.495Z,11.30
2017-11-07T11:37:45.744Z,11.60
2017-11-07T11:40:13.212Z,11.60
2017-11-07T11:42:40.679Z,11.40
2017-11-07T11:45:08.915Z,9.80
2017-11-07T11:47:36.394Z,9.80
2017-11-07T11:50:03.865Z,10.20
2017-11-07T11:52:31.339Z,11.00
2017-11-07T11:54:59.580Z,11.50
2017-11-07T11:57:27.088Z,11.50
2017-11-07T11:59:54.563Z,11.90
2017-11-07T12:02:22.059Z,12.50
2017-11-07T12:04:51.039Z,12.70
2017-11-07T12:07:18.502Z,12.70
2017-11-07T12:09:45.994Z,12.60
2017-11-07T12:12:13.454Z,12.60
2017-11-07T12:14:40.935Z,13.00
2017-11-07T12:17:08.540Z,12.40
2017-11-07T12:19:36.016Z,12.40
2017-11-07T12:22:04.259Z,12.20
2017-11-07T12:24:31.722Z,12.20
2017-11-07T12:27:00.711Z,12.80
2017-11-07T12:29:28.172Z,12.80
2017-11-07T12:31:55.653Z,13.00
2017-11-07T12:34:23.892Z,13.40
2017-11-07T12:36:51.363Z,13.40
2017-11-07T12:39:18.823Z,13.00
2017-11-07T12:41:46.286Z,12.50
2017-11-07T12:44:14.531Z,12.00
2017-11-07T12:46:41.989Z,12.00
2017-11-07T12:49:09.473Z,12.00
2017-11-07T12:51:49.426Z,12.10
2017-11-07T12:54:17.671Z,12.50
2017-11-07T12:56:45.133Z,12.50
2017-11-07T12:59:14.111Z,11.80
2017-11-07T13:01:41.608Z,11.80
2017-11-07T13:04:09.845Z,11.40
2017-11-07T13:06:37.323Z,11.40
2017-11-07T13:09:04.807Z,11.50
2017-11-07T13:11:33.052Z,12.10
2017-11-07T13:14:01.502Z,12.10
2017-11-07T13:16:28.970Z,12.00
2017-11-07T13:18:56.437Z,11.60
2017-11-07T13:21:23.897Z,11.10
2017-11-07T13:23:51.378Z,10.80
2017-11-07T13:26:19.634Z,10.90
2017-11-07T13:28:47.090Z,10.90
2017-11-07T13:31:14.564Z,11.40
2017-11-07T13:33:42.791Z,11.60
2017-11-07T13:36:10.252Z,11.50
2017-11-07T13:38:37.728Z,11.60
2017-11-07T13:41:05.190Z,11.30
2017-11-07T13:43:32.675Z,11.40
2017-11-07T13:46:00.143Z,11.60
2017-11-07T13:48:27.599Z,11.30
2017-11-07T13:50:55.102Z,10.90
2017-11-07T13:53:22.580Z,10.80
2017-11-07T13:55:50.423Z,10.70
2017-11-07T13:58:17.878Z,10.60
2017-11-07T14:00:45.367Z,10.40
2017-11-07T14:03:13.599Z,10.20
2017-11-07T14:05:41.080Z,10.10
2017-11-07T14:08:08.563Z,10.00
2017-11-07T14:10:36.794Z,10.00
2017-11-07T14:13:04.268Z,10.00
2017-11-07T14:15:31.731Z,9.90
2017-11-07T14:17:59.203Z,9.70
2017-11-07T14:20:27.434Z,9.40
2017-11-07T14:22:54.891Z,9.40
2017-11-07T14:25:22.367Z,9.30
2017-11-07T14:27:49.829Z,9.20
2017-11-07T14:30:17.305Z,9.20
2017-11-07T14:32:45.530Z,8.90
2017-11-07T14:35:13.003Z,8.90
2017-11-07T14:37:40.458Z,8.80
2017-11-07T14:40:07.947Z,8.70
2017-11-07T14:42:36.172Z,8.40
2017-11-07T14:45:03.642Z,8.40
2017-11-07T14:47:31.124Z,8.30
2017-11-07T14:49:59.358Z,8.30
2017-11-07T14:52:26.815Z,8.30
2017-11-07T14:54:54.291Z,8.20
2017-11-07T14:57:21.761Z,8.20
2017-11-07T14:59:49.234Z,8.20
2017-11-07T15:02:17.464Z,8.00
2017-11-07T15:04:44.923Z,8.00
2017-11-07T15:07:12.403Z,8.00
2017-11-07T15:09:39.858Z,7.90
2017-11-07T15:12:07.348Z,7.90
2017-11-07T15:14:34.804Z,7.80
2017-11-07T15:17:02.279Z,7.80
2017-11-07T15:19:29.733Z,7.80
2017-11-07T15:21:58.565Z,7.60
2017-11-07T15:24:26.035Z,7.60
2017-11-07T15:26:53.504Z,7.60
2017-11-07T15:29:21.738Z,7.50
2017-11-07T15:31:49.223Z,7.40
2017-11-07T15:34:16.697Z,7.40
2017-11-07T15:36:44.928Z,7.30
2017-11-07T15:39:12.402Z,7.30
2017-11-07T15:41:39.864Z,7.20
2017-11-07T15:44:07.335Z,7.20
2017-11-07T15:46:35.576Z,7.10
2017-11-07T15:49:03.055Z,7.10
2017-11-07T15:51:32.033Z,7.00
2017-11-07T15:54:00.268Z,7.00
2017-11-07T15:56:27.751Z,7.00
2017-11-07T15:58:55.228Z,7.00
2017-11-07T16:01:22.704Z,7.00
2017-11-07T16:03:50.927Z,6.90
2017-11-07T16:06:18.403Z,6.90
2017-11-07T16:08:46.459Z,6.90
2017-11-07T16:11:13.922Z,6.90
2017-11-07T16:13:41.391Z,6.90
2017-11-07T16:16:08.868Z,6.80
2017-11-07T16:18:37.099Z,6.70
2017-11-07T16:21:04.583Z,6.70
2017-11-07T16:23:32.053Z,6.70
2017-11-07T16:26:00.286Z,6.60
2017-11-07T16:28:27.767Z,6.60
2017-11-07T16:30:55.253Z,6.60
2017-11-07T16:33:23.505Z,6.60
2017-11-07T16:35:50.968Z,6.50
2017-11-07T16:38:19.235Z,6.50
2017-11-07T16:40:46.712Z,6.50
2017-11-07T16:43:14.970Z,6.40
2017-11-07T16:45:42.452Z,6.40
2017-11-07T16:48:10.679Z,6.30
2017-11-07T16:50:38.170Z,6.30
2017-11-07T16:53:06.406Z,6.20
2017-11-07T16:55:33.890Z,6.20
2017-11-07T16:58:01.359Z,6.20
2017-11-07T17:00:28.839Z,6.20
2017-11-07T17:02:56.315Z,6.20
2017-11-07T17:05:23.787Z,6.20
2017-11-07T17:07:51.255Z,6.20
2017-11-07T17:10:18.746Z,6.10
2017-11-07T17:12:46.991Z,6.10
2017-11-07T17:15:14.463Z,6.10
2017-11-07T17:17:41.939Z,6.10
2017-11-07T17:20:10.187Z,6.10
2017-11-07T17:22:37.668Z,6.10
2017-11-07T17:25:05.915Z,6.10
2017-11-07T17:27:33.382Z,6.10
2017-11-07T17:30:01.627Z,6.10
2017-11-07T17:32:29.111Z,6.10
2017-11-07T17:34:56.569Z,6.10
2017-11-07T17:37:24.048Z,6.10
2017-11-07T17:39:52.279Z,6.10
2017-11-07T17:42:19.760Z,6.10
2017-11-07T17:44:47.240Z,6.10
2017-11-07T17:47:15.477Z,6.10
2017-11-07T17:49:42.951Z,6.10
2017-11-07T17:52:10.419Z,6.20
2017-11-07T17:54:38.670Z,6.20
2017-11-07T17:57:06.143Z,6.10
2017-11-07T17:59:33.608Z,6.10
2017-11-07T18:02:01.855Z,6.10
2017-11-07T18:04:30.822Z,6.00
2017-11-07T18:06:58.307Z,6.00
2017-11-07T18:09:25.783Z,6.00
2017-11-07T18:11:54.039Z,5.90
2017-11-07T18:14:21.535Z,6.00
2017-11-07T18:16:49.014Z,5.90
2017-11-07T18:19:16.480Z,5.90
2017-11-07T18:21:43.947Z,5.90
2017-11-07T18:24:11.427Z,5.90
2017-11-07T18:26:38.902Z,5.90
2017-11-07T18:29:07.147Z,5.80
2017-11-07T18:31:35.156Z,5.80
2017-11-07T18:34:02.687Z,5.80
2017-11-07T18:36:30.162Z,5.70
2017-11-07T18:38:58.395Z,5.60
2017-11-07T18:41:25.876Z,5.60
2017-11-07T18:43:53.360Z,5.50
2017-11-07T18:46:20.819Z,5.50
2017-11-07T18:48:48.310Z,5.40
2017-11-07T18:51:15.806Z,5.40
2017-11-07T18:53:43.292Z,5.40
2017-11-07T18:56:12.767Z,5.40
2017-11-07T18:58:40.231Z,5.30
2017-11-07T19:01:09.148Z,5.30
2017-11-07T19:03:36.595Z,5.20
2017-11-07T19:06:04.079Z,5.20
2017-11-07T19:08:31.567Z,5.20
2017-11-07T19:10:59.031Z,5.10
2017-11-07T19:13:26.508Z,5.10
2017-11-07T19:15:54.749Z,5.10
2017-11-07T19:18:22.227Z,5.10
2017-11-07T19:20:50.463Z,5.10
2017-11-07T19:23:17.949Z,5.10
2017-11-07T19:25:45.435Z,5.10
2017-11-07T19:28:13.669Z,5.10
2017-11-07T19:30:42.656Z,5.20
2017-11-07T19:33:10.130Z,5.10
2017-11-07T19:35:37.603Z,5.20
2017-11-07T19:38:05.847Z,5.20
2017-11-07T19:40:33.355Z,5.10
2017-11-07T19:43:00.839Z,5.20
2017-11-07T19:45:28.317Z,5.20
2017-11-07T19:47:55.771Z,5.20
2017-11-07T19:50:23.253Z,5.20
2017-11-07T19:52:51.284Z,5.30
2017-11-07T19:55:18.756Z,5.30
2017-11-07T19:57:46.219Z,5.30
2017-11-07T20:00:13.707Z,5.30
2017-11-07T20:02:41.943Z,5.30
2017-11-07T20:05:09.399Z,5.20
2017-11-07T20:07:36.895Z,5.30
2017-11-07T20:10:05.166Z,5.30
2017-11-07T20:12:33.407Z,5.30
2017-11-07T20:15:00.882Z,5.30
2017-11-07T20:17:29.855Z,5.30
2017-11-07T20:19:57.315Z,5.30
2017-11-07T20:22:24.819Z,5.30
2017-11-07T20:24:53.062Z,5.30
2017-11-07T20:27:20.535Z,5.30
2017-11-07T20:29:48.772Z,5.30
2017-11-07T20:32:16.254Z,5.30
2017-11-07T20:34:43.723Z,5.20
2017-11-07T20:37:11.206Z,5.30
2017-11-07T20:39:38.694Z,5.30
2017-11-07T20:42:06.156Z,5.30
2017-11-07T20:44:33.626Z,5.30
2017-11-07T20:47:01.112Z,5.30
2017-11-07T20:49:29.359Z,5.30
2017-11-07T20:51:56.827Z,5.30
2017-11-07T20:54:24.312Z,5.30
2017-11-07T20:56:51.794Z,5.40
2017-11-07T20:59:19.267Z,5.30
2017-11-07T21:01:46.732Z,5.30
2017-11-07T21:04:14.182Z,5.30
2017-11-07T21:06:41.663Z,5.30
2017-11-07T21:09:09.140Z,5.20
2017-11-07T21:11:37.379Z,5.20
2017-11-07T21:14:05.624Z,5.20
2017-11-07T21:16:33.107Z,5.20
2017-11-07T21:19:00.591Z,5.20
2017-11-07T21:21:28.824Z,5.20
2017-11-07T21:23:56.316Z,5.20
2017-11-07T21:26:23.761Z,5.20
2017-11-07T21:28:51.235Z,5.20
2017-11-07T21:31:19.716Z,5.20
2017-11-07T21:33:47.948Z,5.10
2017-11-07T21:36:15.405Z,5.10
2017-11-07T21:38:42.887Z,5.10
2017-11-07T21:41:10.351Z,5.10
2017-11-07T21:43:38.585Z,5.10
2017-11-07T21:46:06.060Z,5.10
2017-11-07T21:48:33.540Z,5.10
2017-11-07T21:51:01.004Z,5.00
2017-11-07T21:53:28.489Z,5.00
2017-11-07T21:55:55.968Z,4.90
2017-11-07T21:58:23.423Z,4.90
2017-11-07T22:00:50.902Z,4.90
2017-11-07T22:03:18.400Z,4.90
2017-11-07T22:05:46.619Z,4.90
2017-11-07T22:08:14.106Z,4.90
2017-11-07T22:10:41.576Z,4.90
2017-11-07T22:13:09.051Z,4.90
2017-11-07T22:15:37.275Z,4.80
2017-11-07T22:18:11.419Z,4.80
2017-11-07T22:20:39.655Z,4.80
2017-11-07T22:23:13.401Z,4.80
2017-11-07T22:25:43.606Z,4.80
2017-11-07T22:28:11.095Z,4.80
2017-11-07T22:30:38.555Z,4.80
2017-11-07T22:33:06.042Z,4.70
2017-11-07T22:35:33.532Z,4.70
2017-11-07T22:38:01.007Z,4.60
2017-11-07T22:40:29.240Z,4.60
2017-11-07T22:42:56.719Z,4.50
2017-11-07T22:45:24.216Z,4.50
2017-11-07T22:47:51.671Z,4.40
2017-11-07T22:50:19.148Z,4.30
2017-11-07T22:52:46.603Z,4.30
2017-11-07T22:55:14.083Z,4.40
2017-11-07T22:57:41.542Z,4.30
2017-11-07T23:00:09.020Z,4.20
2017-11-07T23:02:36.500Z,4.10
2017-11-07T23:05:06.930Z,4.10
2017-11-07T23:07:34.400Z,4.10
2017-11-07T23:10:01.868Z,4.00
2017-11-07T23:12:29.347Z,4.10
2017-11-07T23:14:56.815Z,4.10
2017-11-07T23:17:24.299Z,4.20
2017-11-07T23:19:52.531Z,4.30
2017-11-07T23:22:20.008Z,4.30
2017-11-07T23:24:47.483Z,4.40
2017-11-07T23:27:14.959Z,4.40
2017-11-07T23:29:42.446Z,4.60
2017-11-07T23:32:09.907Z,4.60
2017-11-07T23:34:37.387Z,4.60
2017-11-07T23:37:04.846Z,4.70
2017-11-07T23:39:32.303Z,4.70
2017-11-07T23:42:00.552Z,4.80
2017-11-07T23:44:28.019Z,4.70
2017-11-07T23:46:55.494Z,4.80
2017-11-07T23:49:23.007Z,4.80
2017-11-07T23:51:50.484Z,4.80
2017-11-07T23:54:17.939Z,4.80
2017-11-07T23:56:45.424Z,4.90
2017-11-07T23:59:12.878Z,5.00
